sensor_id;sensor_type;location;lat;lon;timestamp;P1;durP1;ratioP1;P2;durP2;ratioP2
81396;SDS011;70852;49.908;8.126;2024-03-23T00:51:26;10.48;;;5.30;;
81396;SDS011;70852;49.908;8.126;2024-03-23T00:56:20;8.32;;;5.60;;
81396;SDS011;70852;49.908;8.126;2024-03-23T00:58:45;9.52;;;5.35;;
81396;SDS011;70852;49.908;8.126;2024-03-23T01:01:11;9.93;;;5.38;;
81396;SDS011;70852;49.908;8.126;2024-03-23T01:03:36;8.68;;;5.00;;
81396;SDS011;70852;49.908;8.126;2024-03-23T01:06:01;8.15;;;5.28;;
81396;SDS011;70852;49.908;8.126;2024-03-23T01:08:28;10.02;;;5.40;;
81396;SDS011;70852;49.908;8.126;2024-03-23T01:10:56;8.80;;;5.15;;
81396;SDS011;70852;49.908;8.126;2024-03-23T01:13:23;9.05;;;5.22;;
81396;SDS011;70852;49.908;8.126;2024-03-23T01:15:55;8.85;;;5.05;;
81396;SDS011;70852;49.908;8.126;2024-03-23T01:18:23;8.00;;;4.93;;
81396;SDS011;70852;49.908;8.126;2024-03-23T01:20:51;8.90;;;5.32;;
81396;SDS011;70852;49.908;8.126;2024-03-23T01:23:16;10.38;;;5.70;;
81396;SDS011;70852;49.908;8.126;2024-03-23T01:25:42;10.90;;;5.07;;
81396;SDS011;70852;49.908;8.126;2024-03-23T01:28:07;10.27;;;5.60;;
81396;SDS011;70852;49.908;8.126;2024-03-23T01:30:33;8.52;;;5.05;;
81396;SDS011;70852;49.908;8.126;2024-03-23T01:33:02;8.43;;;5.13;;
81396;SDS011;70852;49.908;8.126;2024-03-23T01:35:27;10.45;;;4.60;;
81396;SDS011;70852;49.908;8.126;2024-03-23T01:37:58;15.02;;;5.78;;
81396;SDS011;70852;49.908;8.126;2024-03-23T01:40:23;9.88;;;5.53;;
81396;SDS011;70852;49.908;8.126;2024-03-23T01:42:55;9.43;;;5.25;;
81396;SDS011;70852;49.908;8.126;2024-03-23T01:45:26;9.70;;;5.55;;
81396;SDS011;70852;49.908;8.126;2024-03-23T01:47:52;8.77;;;5.18;;
81396;SDS011;70852;49.908;8.126;2024-03-23T01:50:20;11.80;;;5.97;;
81396;SDS011;70852;49.908;8.126;2024-03-23T01:52:48;10.70;;;5.70;;
81396;SDS011;70852;49.908;8.126;2024-03-23T01:55:16;9.77;;;5.70;;
81396;SDS011;70852;49.908;8.126;2024-03-23T01:57:44;9.68;;;5.50;;
81396;SDS011;70852;49.908;8.126;2024-03-23T02:00:11;8.85;;;5.43;;
81396;SDS011;70852;49.908;8.126;2024-03-23T02:02:46;11.52;;;5.65;;
81396;SDS011;70852;49.908;8.126;2024-03-23T02:05:12;10.63;;;6.07;;
81396;SDS011;70852;49.908;8.126;2024-03-23T02:07:40;9.75;;;5.22;;
81396;SDS011;70852;49.908;8.126;2024-03-23T02:10:07;8.90;;;5.30;;
81396;SDS011;70852;49.908;8.126;2024-03-23T02:12:38;8.70;;;5.80;;
81396;SDS011;70852;49.908;8.126;2024-03-23T02:15:06;8.30;;;4.72;;
81396;SDS011;70852;49.908;8.126;2024-03-23T02:17:33;8.27;;;5.25;;
81396;SDS011;70852;49.908;8.126;2024-03-23T02:19:59;9.73;;;5.38;;
81396;SDS011;70852;49.908;8.126;2024-03-23T02:22:25;10.23;;;5.82;;
81396;SDS011;70852;49.908;8.126;2024-03-23T02:27:27;9.40;;;5.18;;
81396;SDS011;70852;49.908;8.126;2024-03-23T02:29:53;8.93;;;5.50;;
81396;SDS011;70852;49.908;8.126;2024-03-23T02:32:20;10.80;;;5.47;;
81396;SDS011;70852;49.908;8.126;2024-03-23T02:34:48;9.55;;;5.00;;
81396;SDS011;70852;49.908;8.126;2024-03-23T02:37:13;8.55;;;5.32;;
81396;SDS011;70852;49.908;8.126;2024-03-23T02:39:39;9.15;;;5.38;;
81396;SDS011;70852;49.908;8.126;2024-03-23T02:42:04;7.97;;;4.88;;
81396;SDS011;70852;49.908;8.126;2024-03-23T02:44:29;9.35;;;5.18;;
81396;SDS011;70852;49.908;8.126;2024-03-23T02:46:55;9.70;;;4.80;;
81396;SDS011;70852;49.908;8.126;2024-03-23T02:49:22;10.02;;;5.20;;
81396;SDS011;70852;49.908;8.126;2024-03-23T02:51:48;10.32;;;5.18;;
81396;SDS011;70852;49.908;8.126;2024-03-23T02:54:15;8.30;;;4.82;;
81396;SDS011;70852;49.908;8.126;2024-03-23T02:56:46;9.88;;;5.40;;
81396;SDS011;70852;49.908;8.126;2024-03-23T02:59:11;8.32;;;4.85;;
81396;SDS011;70852;49.908;8.126;2024-03-23T03:01:36;10.18;;;5.47;;
81396;SDS011;70852;49.908;8.126;2024-03-23T03:04:04;9.57;;;5.68;;
81396;SDS011;70852;49.908;8.126;2024-03-23T03:06:30;11.23;;;5.63;;
81396;SDS011;70852;49.908;8.126;2024-03-23T03:08:58;9.02;;;5.50;;
81396;SDS011;70852;49.908;8.126;2024-03-23T03:11:28;10.25;;;5.95;;
81396;SDS011;70852;49.908;8.126;2024-03-23T03:13:53;10.93;;;5.90;;
81396;SDS011;70852;49.908;8.126;2024-03-23T03:16:22;11.98;;;5.97;;
81396;SDS011;70852;49.908;8.126;2024-03-23T03:18:47;10.15;;;6.05;;
81396;SDS011;70852;49.908;8.126;2024-03-23T03:21:15;9.57;;;5.68;;
81396;SDS011;70852;49.908;8.126;2024-03-23T03:23:44;13.38;;;6.63;;
81396;SDS011;70852;49.908;8.126;2024-03-23T03:26:11;13.13;;;7.65;;
81396;SDS011;70852;49.908;8.126;2024-03-23T03:28:37;14.93;;;8.15;;
81396;SDS011;70852;49.908;8.126;2024-03-23T03:31:02;14.80;;;8.40;;
81396;SDS011;70852;49.908;8.126;2024-03-23T03:33:27;16.15;;;8.32;;
81396;SDS011;70852;49.908;8.126;2024-03-23T03:35:53;17.73;;;7.68;;
81396;SDS011;70852;49.908;8.126;2024-03-23T03:38:21;14.63;;;7.30;;
81396;SDS011;70852;49.908;8.126;2024-03-23T03:40:49;14.82;;;8.15;;
81396;SDS011;70852;49.908;8.126;2024-03-23T03:43:17;17.13;;;8.82;;
81396;SDS011;70852;49.908;8.126;2024-03-23T03:45:43;13.43;;;7.28;;
81396;SDS011;70852;49.908;8.126;2024-03-23T03:48:16;14.40;;;7.13;;
81396;SDS011;70852;49.908;8.126;2024-03-23T03:50:41;15.90;;;8.77;;
81396;SDS011;70852;49.908;8.126;2024-03-23T03:53:09;13.63;;;6.68;;
81396;SDS011;70852;49.908;8.126;2024-03-23T03:55:34;15.82;;;7.93;;
81396;SDS011;70852;49.908;8.126;2024-03-23T03:58:04;13.52;;;6.75;;
81396;SDS011;70852;49.908;8.126;2024-03-23T04:00:32;12.98;;;5.55;;
81396;SDS011;70852;49.908;8.126;2024-03-23T04:03:00;11.40;;;5.13;;
81396;SDS011;70852;49.908;8.126;2024-03-23T04:05:25;6.63;;;3.53;;
81396;SDS011;70852;49.908;8.126;2024-03-23T04:07:51;4.85;;;2.15;;
81396;SDS011;70852;49.908;8.126;2024-03-23T04:10:21;4.35;;;2.40;;
81396;SDS011;70852;49.908;8.126;2024-03-23T04:12:47;5.82;;;2.30;;
81396;SDS011;70852;49.908;8.126;2024-03-23T04:15:12;3.83;;;1.80;;
81396;SDS011;70852;49.908;8.126;2024-03-23T04:17:38;6.63;;;2.08;;
81396;SDS011;70852;49.908;8.126;2024-03-23T04:20:10;3.35;;;1.55;;
81396;SDS011;70852;49.908;8.126;2024-03-23T04:22:39;4.40;;;1.60;;
81396;SDS011;70852;49.908;8.126;2024-03-23T04:25:05;2.53;;;1.17;;
81396;SDS011;70852;49.908;8.126;2024-03-23T04:27:34;3.63;;;1.70;;
81396;SDS011;70852;49.908;8.126;2024-03-23T04:30:02;3.03;;;1.38;;
81396;SDS011;70852;49.908;8.126;2024-03-23T04:32:30;2.40;;;1.20;;
81396;SDS011;70852;49.908;8.126;2024-03-23T04:34:58;2.70;;;1.20;;
81396;SDS011;70852;49.908;8.126;2024-03-23T04:37:26;2.63;;;1.05;;
81396;SDS011;70852;49.908;8.126;2024-03-23T04:39:53;2.45;;;1.25;;
81396;SDS011;70852;49.908;8.126;2024-03-23T04:42:21;3.22;;;1.00;;
81396;SDS011;70852;49.908;8.126;2024-03-23T04:44:49;2.10;;;1.02;;
81396;SDS011;70852;49.908;8.126;2024-03-23T04:47:15;3.00;;;1.17;;
81396;SDS011;70852;49.908;8.126;2024-03-23T04:49:43;3.08;;;1.35;;
81396;SDS011;70852;49.908;8.126;2024-03-23T04:52:11;2.22;;;1.10;;
81396;SDS011;70852;49.908;8.126;2024-03-23T04:54:38;2.45;;;1.38;;
81396;SDS011;70852;49.908;8.126;2024-03-23T04:57:06;2.70;;;1.10;;
81396;SDS011;70852;49.908;8.126;2024-03-23T04:59:36;3.92;;;1.73;;
81396;SDS011;70852;49.908;8.126;2024-03-23T05:02:02;2.33;;;1.20;;
81396;SDS011;70852;49.908;8.126;2024-03-23T05:04:27;3.08;;;1.10;;
81396;SDS011;70852;49.908;8.126;2024-03-23T05:06:53;3.45;;;1.17;;
81396;SDS011;70852;49.908;8.126;2024-03-23T05:09:23;2.67;;;1.30;;
81396;SDS011;70852;49.908;8.126;2024-03-23T05:11:48;2.78;;;1.25;;
81396;SDS011;70852;49.908;8.126;2024-03-23T05:14:14;4.45;;;1.80;;
81396;SDS011;70852;49.908;8.126;2024-03-23T05:16:41;2.58;;;1.20;;
81396;SDS011;70852;49.908;8.126;2024-03-23T05:19:07;1.88;;;1.00;;
81396;SDS011;70852;49.908;8.126;2024-03-23T05:21:32;2.38;;;1.13;;
81396;SDS011;70852;49.908;8.126;2024-03-23T05:23:58;3.20;;;1.45;;
81396;SDS011;70852;49.908;8.126;2024-03-23T05:26:26;2.33;;;1.15;;
81396;SDS011;70852;49.908;8.126;2024-03-23T05:28:53;3.00;;;1.02;;
81396;SDS011;70852;49.908;8.126;2024-03-23T05:31:37;1.92;;;0.82;;
81396;SDS011;70852;49.908;8.126;2024-03-23T05:34:08;1.83;;;0.60;;
81396;SDS011;70852;49.908;8.126;2024-03-23T05:36:34;1.67;;;0.63;;
81396;SDS011;70852;49.908;8.126;2024-03-23T05:38:59;2.35;;;0.90;;
81396;SDS011;70852;49.908;8.126;2024-03-23T05:41:24;1.13;;;0.63;;
81396;SDS011;70852;49.908;8.126;2024-03-23T05:43:50;0.80;;;0.45;;
81396;SDS011;70852;49.908;8.126;2024-03-23T05:46:15;1.08;;;0.40;;
81396;SDS011;70852;49.908;8.126;2024-03-23T05:48:40;1.58;;;0.70;;
81396;SDS011;70852;49.908;8.126;2024-03-23T05:51:05;0.95;;;0.50;;
81396;SDS011;70852;49.908;8.126;2024-03-23T05:53:33;1.15;;;0.60;;
81396;SDS011;70852;49.908;8.126;2024-03-23T05:56:00;0.85;;;0.38;;
81396;SDS011;70852;49.908;8.126;2024-03-23T05:58:29;0.82;;;0.38;;
81396;SDS011;70852;49.908;8.126;2024-03-23T06:01:00;0.68;;;0.30;;
81396;SDS011;70852;49.908;8.126;2024-03-23T06:03:26;0.90;;;0.40;;
81396;SDS011;70852;49.908;8.126;2024-03-23T06:05:52;0.98;;;0.57;;
81396;SDS011;70852;49.908;8.126;2024-03-23T06:08:25;1.30;;;0.52;;
81396;SDS011;70852;49.908;8.126;2024-03-23T06:10:50;1.20;;;0.52;;
81396;SDS011;70852;49.908;8.126;2024-03-23T06:13:16;0.75;;;0.38;;
81396;SDS011;70852;49.908;8.126;2024-03-23T06:15:44;1.10;;;0.63;;
81396;SDS011;70852;49.908;8.126;2024-03-23T06:18:11;1.10;;;0.57;;
81396;SDS011;70852;49.908;8.126;2024-03-23T06:20:39;0.80;;;0.40;;
81396;SDS011;70852;49.908;8.126;2024-03-23T06:23:04;2.42;;;0.82;;
81396;SDS011;70852;49.908;8.126;2024-03-23T06:25:35;0.75;;;0.50;;
81396;SDS011;70852;49.908;8.126;2024-03-23T06:28:02;1.10;;;0.60;;
81396;SDS011;70852;49.908;8.126;2024-03-23T06:30:32;1.17;;;0.68;;
81396;SDS011;70852;49.908;8.126;2024-03-23T06:32:58;1.58;;;0.80;;
81396;SDS011;70852;49.908;8.126;2024-03-23T06:35:25;1.35;;;0.68;;
81396;SDS011;70852;49.908;8.126;2024-03-23T06:37:53;2.33;;;1.00;;
81396;SDS011;70852;49.908;8.126;2024-03-23T06:40:18;2.55;;;1.10;;
81396;SDS011;70852;49.908;8.126;2024-03-23T06:42:43;1.88;;;0.90;;
81396;SDS011;70852;49.908;8.126;2024-03-23T06:45:13;2.20;;;1.27;;
81396;SDS011;70852;49.908;8.126;2024-03-23T06:47:41;2.17;;;1.10;;
81396;SDS011;70852;49.908;8.126;2024-03-23T06:50:06;3.40;;;1.42;;
81396;SDS011;70852;49.908;8.126;2024-03-23T06:52:32;6.05;;;1.38;;
81396;SDS011;70852;49.908;8.126;2024-03-23T06:54:59;2.88;;;1.33;;
81396;SDS011;70852;49.908;8.126;2024-03-23T06:57:29;4.60;;;1.40;;
81396;SDS011;70852;49.908;8.126;2024-03-23T06:59:59;2.80;;;1.48;;
81396;SDS011;70852;49.908;8.126;2024-03-23T07:02:26;5.28;;;1.77;;
81396;SDS011;70852;49.908;8.126;2024-03-23T07:04:52;3.40;;;1.88;;
81396;SDS011;70852;49.908;8.126;2024-03-23T07:07:17;4.43;;;1.88;;
81396;SDS011;70852;49.908;8.126;2024-03-23T07:09:42;6.57;;;2.00;;
81396;SDS011;70852;49.908;8.126;2024-03-23T07:12:10;5.28;;;1.80;;
81396;SDS011;70852;49.908;8.126;2024-03-23T07:14:39;4.82;;;2.00;;
81396;SDS011;70852;49.908;8.126;2024-03-23T07:19:36;3.88;;;1.83;;
81396;SDS011;70852;49.908;8.126;2024-03-23T07:22:03;5.00;;;2.15;;
81396;SDS011;70852;49.908;8.126;2024-03-23T07:24:31;3.35;;;2.17;;
81396;SDS011;70852;49.908;8.126;2024-03-23T07:27:01;5.50;;;2.53;;
81396;SDS011;70852;49.908;8.126;2024-03-23T07:29:28;3.67;;;2.20;;
81396;SDS011;70852;49.908;8.126;2024-03-23T07:31:56;7.25;;;2.58;;
81396;SDS011;70852;49.908;8.126;2024-03-23T07:34:21;8.38;;;2.45;;
81396;SDS011;70852;49.908;8.126;2024-03-23T07:36:46;4.05;;;2.20;;
81396;SDS011;70852;49.908;8.126;2024-03-23T07:39:14;5.70;;;2.40;;
81396;SDS011;70852;49.908;8.126;2024-03-23T07:41:44;6.45;;;2.53;;
81396;SDS011;70852;49.908;8.126;2024-03-23T07:44:10;4.45;;;2.33;;
81396;SDS011;70852;49.908;8.126;2024-03-23T07:46:35;4.38;;;2.05;;
81396;SDS011;70852;49.908;8.126;2024-03-23T07:49:04;5.38;;;2.17;;
81396;SDS011;70852;49.908;8.126;2024-03-23T07:51:29;5.05;;;2.50;;
81396;SDS011;70852;49.908;8.126;2024-03-23T07:53:55;4.47;;;2.20;;
81396;SDS011;70852;49.908;8.126;2024-03-23T07:56:24;11.95;;;2.70;;
81396;SDS011;70852;49.908;8.126;2024-03-23T07:58:50;8.20;;;2.40;;
81396;SDS011;70852;49.908;8.126;2024-03-23T08:01:16;4.45;;;2.58;;
81396;SDS011;70852;49.908;8.126;2024-03-23T08:03:43;5.63;;;2.08;;
81396;SDS011;70852;49.908;8.126;2024-03-23T08:08:34;4.17;;;2.07;;
81396;SDS011;70852;49.908;8.126;2024-03-23T08:11:00;6.20;;;2.22;;
81396;SDS011;70852;49.908;8.126;2024-03-23T08:13:26;7.18;;;2.65;;
81396;SDS011;70852;49.908;8.126;2024-03-23T08:15:52;6.35;;;2.45;;
81396;SDS011;70852;49.908;8.126;2024-03-23T08:18:20;4.95;;;2.47;;
81396;SDS011;70852;49.908;8.126;2024-03-23T08:20:46;4.13;;;1.90;;
81396;SDS011;70852;49.908;8.126;2024-03-23T08:23:13;4.25;;;2.25;;
81396;SDS011;70852;49.908;8.126;2024-03-23T08:25:38;5.07;;;1.70;;
81396;SDS011;70852;49.908;8.126;2024-03-23T08:28:06;8.05;;;1.90;;
81396;SDS011;70852;49.908;8.126;2024-03-23T08:30:32;5.05;;;1.83;;
81396;SDS011;70852;49.908;8.126;2024-03-23T08:33:00;6.22;;;1.70;;
81396;SDS011;70852;49.908;8.126;2024-03-23T08:35:25;5.57;;;1.98;;
81396;SDS011;70852;49.908;8.126;2024-03-23T08:37:52;6.13;;;2.28;;
81396;SDS011;70852;49.908;8.126;2024-03-23T08:40:17;8.18;;;2.17;;
81396;SDS011;70852;49.908;8.126;2024-03-23T08:42:45;6.03;;;2.22;;
81396;SDS011;70852;49.908;8.126;2024-03-23T08:45:10;3.65;;;1.77;;
81396;SDS011;70852;49.908;8.126;2024-03-23T08:47:36;6.30;;;2.05;;
81396;SDS011;70852;49.908;8.126;2024-03-23T08:50:03;3.92;;;1.63;;
81396;SDS011;70852;49.908;8.126;2024-03-23T08:52:29;6.57;;;2.63;;
81396;SDS011;70852;49.908;8.126;2024-03-23T08:54:54;4.50;;;1.63;;
81396;SDS011;70852;49.908;8.126;2024-03-23T08:57:21;6.50;;;1.90;;
81396;SDS011;70852;49.908;8.126;2024-03-23T08:59:48;5.45;;;1.83;;
81396;SDS011;70852;49.908;8.126;2024-03-23T09:02:16;5.88;;;1.73;;
81396;SDS011;70852;49.908;8.126;2024-03-23T09:04:41;5.90;;;1.70;;
81396;SDS011;70852;49.908;8.126;2024-03-23T09:07:09;5.20;;;1.70;;
81396;SDS011;70852;49.908;8.126;2024-03-23T09:09:40;4.03;;;1.80;;
81396;SDS011;70852;49.908;8.126;2024-03-23T09:12:07;6.38;;;1.92;;
81396;SDS011;70852;49.908;8.126;2024-03-23T09:14:35;5.80;;;1.70;;
81396;SDS011;70852;49.908;8.126;2024-03-23T09:17:03;4.72;;;1.77;;
81396;SDS011;70852;49.908;8.126;2024-03-23T09:19:30;7.82;;;2.10;;
81396;SDS011;70852;49.908;8.126;2024-03-23T09:21:55;6.43;;;1.75;;
81396;SDS011;70852;49.908;8.126;2024-03-23T09:24:21;5.38;;;1.65;;
81396;SDS011;70852;49.908;8.126;2024-03-23T09:26:46;4.97;;;1.67;;
81396;SDS011;70852;49.908;8.126;2024-03-23T09:29:12;5.90;;;2.30;;
81396;SDS011;70852;49.908;8.126;2024-03-23T09:31:40;4.35;;;1.48;;
81396;SDS011;70852;49.908;8.126;2024-03-23T09:34:06;4.07;;;1.90;;
81396;SDS011;70852;49.908;8.126;2024-03-23T09:36:31;4.05;;;1.65;;
81396;SDS011;70852;49.908;8.126;2024-03-23T09:38:56;5.47;;;2.13;;
81396;SDS011;70852;49.908;8.126;2024-03-23T09:41:21;5.45;;;2.30;;
81396;SDS011;70852;49.908;8.126;2024-03-23T09:43:47;6.47;;;1.48;;
81396;SDS011;70852;49.908;8.126;2024-03-23T09:46:14;4.43;;;1.75;;
81396;SDS011;70852;49.908;8.126;2024-03-23T09:48:45;5.35;;;1.63;;
81396;SDS011;70852;49.908;8.126;2024-03-23T09:51:13;5.55;;;1.50;;
81396;SDS011;70852;49.908;8.126;2024-03-23T09:53:39;5.80;;;1.38;;
81396;SDS011;70852;49.908;8.126;2024-03-23T09:56:04;4.22;;;1.60;;
81396;SDS011;70852;49.908;8.126;2024-03-23T09:58:34;2.90;;;1.30;;
81396;SDS011;70852;49.908;8.126;2024-03-23T10:00:59;6.18;;;1.70;;
81396;SDS011;70852;49.908;8.126;2024-03-23T10:03:27;3.70;;;1.45;;
81396;SDS011;70852;49.908;8.126;2024-03-23T10:06:02;6.38;;;2.30;;
81396;SDS011;70852;49.908;8.126;2024-03-23T10:08:30;6.03;;;1.88;;
81396;SDS011;70852;49.908;8.126;2024-03-23T10:10:58;3.55;;;1.33;;
81396;SDS011;70852;49.908;8.126;2024-03-23T10:13:43;5.22;;;1.80;;
81396;SDS011;70852;49.908;8.126;2024-03-23T10:16:21;5.07;;;1.48;;
81396;SDS011;70852;49.908;8.126;2024-03-23T10:18:47;3.30;;;0.75;;
81396;SDS011;70852;49.908;8.126;2024-03-23T10:21:16;2.88;;;0.70;;
81396;SDS011;70852;49.908;8.126;2024-03-23T10:23:42;5.35;;;1.17;;
81396;SDS011;70852;49.908;8.126;2024-03-23T10:26:18;4.22;;;1.10;;
81396;SDS011;70852;49.908;8.126;2024-03-23T10:28:59;4.45;;;1.05;;
81396;SDS011;70852;49.908;8.126;2024-03-23T10:31:33;6.68;;;1.23;;
81396;SDS011;70852;49.908;8.126;2024-03-23T10:34:02;5.40;;;1.05;;
81396;SDS011;70852;49.908;8.126;2024-03-23T10:36:30;4.05;;;1.30;;
81396;SDS011;70852;49.908;8.126;2024-03-23T10:38:55;3.50;;;1.20;;
81396;SDS011;70852;49.908;8.126;2024-03-23T10:41:27;3.30;;;1.20;;
81396;SDS011;70852;49.908;8.126;2024-03-23T10:43:54;3.00;;;0.88;;
81396;SDS011;70852;49.908;8.126;2024-03-23T10:46:22;4.57;;;1.33;;
81396;SDS011;70852;49.908;8.126;2024-03-23T10:48:50;3.63;;;0.90;;
81396;SDS011;70852;49.908;8.126;2024-03-23T10:51:18;5.32;;;0.95;;
81396;SDS011;70852;49.908;8.126;2024-03-23T10:53:43;2.35;;;0.60;;
81396;SDS011;70852;49.908;8.126;2024-03-23T10:56:11;2.38;;;0.40;;
81396;SDS011;70852;49.908;8.126;2024-03-23T10:58:39;2.30;;;0.30;;
81396;SDS011;70852;49.908;8.126;2024-03-23T11:01:07;5.47;;;0.77;;
81396;SDS011;70852;49.908;8.126;2024-03-23T11:03:36;5.80;;;0.80;;
81396;SDS011;70852;49.908;8.126;2024-03-23T11:06:05;2.88;;;1.05;;
81396;SDS011;70852;49.908;8.126;2024-03-23T11:13:47;2.03;;;0.88;;
81396;SDS011;70852;49.908;8.126;2024-03-23T11:18:46;6.35;;;1.45;;
81396;SDS011;70852;49.908;8.126;2024-03-23T11:21:50;3.95;;;1.73;;
81396;SDS011;70852;49.908;8.126;2024-03-23T11:24:22;5.72;;;1.95;;
81396;SDS011;70852;49.908;8.126;2024-03-23T11:26:49;4.43;;;2.03;;
81396;SDS011;70852;49.908;8.126;2024-03-23T11:29:15;3.95;;;1.48;;
81396;SDS011;70852;49.908;8.126;2024-03-23T11:31:45;5.70;;;1.65;;
81396;SDS011;70852;49.908;8.126;2024-03-23T11:34:17;6.13;;;1.90;;
81396;SDS011;70852;49.908;8.126;2024-03-23T11:39:16;6.57;;;1.70;;
81396;SDS011;70852;49.908;8.126;2024-03-23T11:41:48;3.55;;;1.80;;
81396;SDS011;70852;49.908;8.126;2024-03-23T11:44:22;4.65;;;1.90;;
81396;SDS011;70852;49.908;8.126;2024-03-23T11:46:49;3.92;;;1.92;;
81396;SDS011;70852;49.908;8.126;2024-03-23T11:51:49;5.85;;;1.90;;
81396;SDS011;70852;49.908;8.126;2024-03-23T11:54:15;6.03;;;1.88;;
81396;SDS011;70852;49.908;8.126;2024-03-23T11:57:04;6.65;;;2.17;;
81396;SDS011;70852;49.908;8.126;2024-03-23T12:02:10;5.55;;;1.90;;
81396;SDS011;70852;49.908;8.126;2024-03-23T12:04:39;6.40;;;1.73;;
81396;SDS011;70852;49.908;8.126;2024-03-23T12:09:44;5.55;;;1.90;;
81396;SDS011;70852;49.908;8.126;2024-03-23T12:14:42;3.63;;;1.65;;
81396;SDS011;70852;49.908;8.126;2024-03-23T12:17:28;3.38;;;1.33;;
81396;SDS011;70852;49.908;8.126;2024-03-23T12:19:53;5.55;;;1.30;;
81396;SDS011;70852;49.908;8.126;2024-03-23T12:22:22;3.78;;;1.38;;
81396;SDS011;70852;49.908;8.126;2024-03-23T12:24:53;5.35;;;1.40;;
81396;SDS011;70852;49.908;8.126;2024-03-23T12:27:21;6.07;;;1.40;;
81396;SDS011;70852;49.908;8.126;2024-03-23T12:29:48;4.15;;;1.30;;
81396;SDS011;70852;49.908;8.126;2024-03-23T12:32:14;5.38;;;1.70;;
81396;SDS011;70852;49.908;8.126;2024-03-23T12:34:43;4.20;;;1.38;;
81396;SDS011;70852;49.908;8.126;2024-03-23T12:37:13;3.05;;;0.82;;
81396;SDS011;70852;49.908;8.126;2024-03-23T12:39:41;2.05;;;0.75;;
81396;SDS011;70852;49.908;8.126;2024-03-23T12:42:07;1.95;;;0.40;;
81396;SDS011;70852;49.908;8.126;2024-03-23T12:44:32;0.93;;;0.70;;
81396;SDS011;70852;49.908;8.126;2024-03-23T12:46:59;1.45;;;0.28;;
81396;SDS011;70852;49.908;8.126;2024-03-23T12:49:25;1.52;;;0.47;;
81396;SDS011;70852;49.908;8.126;2024-03-23T12:51:55;2.15;;;0.65;;
81396;SDS011;70852;49.908;8.126;2024-03-23T12:54:21;1.30;;;0.50;;
81396;SDS011;70852;49.908;8.126;2024-03-23T12:56:51;1.63;;;0.65;;
81396;SDS011;70852;49.908;8.126;2024-03-23T12:59:17;2.67;;;0.98;;
81396;SDS011;70852;49.908;8.126;2024-03-23T13:01:49;1.30;;;0.68;;
81396;SDS011;70852;49.908;8.126;2024-03-23T13:04:15;1.20;;;0.65;;
81396;SDS011;70852;49.908;8.126;2024-03-23T13:06:41;0.63;;;0.60;;
81396;SDS011;70852;49.908;8.126;2024-03-23T13:09:06;1.42;;;0.80;;
81396;SDS011;70852;49.908;8.126;2024-03-23T13:11:36;0.77;;;0.50;;
81396;SDS011;70852;49.908;8.126;2024-03-23T13:14:04;1.27;;;0.70;;
81396;SDS011;70852;49.908;8.126;2024-03-23T13:16:29;2.08;;;0.57;;
81396;SDS011;70852;49.908;8.126;2024-03-23T13:18:57;1.33;;;0.60;;
81396;SDS011;70852;49.908;8.126;2024-03-23T13:21:22;1.40;;;0.63;;
81396;SDS011;70852;49.908;8.126;2024-03-23T13:23:48;1.42;;;0.55;;
81396;SDS011;70852;49.908;8.126;2024-03-23T13:26:15;1.10;;;0.65;;
81396;SDS011;70852;49.908;8.126;2024-03-23T13:28:44;2.38;;;0.70;;
81396;SDS011;70852;49.908;8.126;2024-03-23T13:31:10;2.05;;;0.68;;
81396;SDS011;70852;49.908;8.126;2024-03-23T13:33:35;1.38;;;0.50;;
81396;SDS011;70852;49.908;8.126;2024-03-23T13:36:01;1.02;;;0.70;;
81396;SDS011;70852;49.908;8.126;2024-03-23T13:38:28;2.63;;;0.85;;
81396;SDS011;70852;49.908;8.126;2024-03-23T13:40:56;2.30;;;0.80;;
81396;SDS011;70852;49.908;8.126;2024-03-23T13:43:23;1.20;;;0.60;;
81396;SDS011;70852;49.908;8.126;2024-03-23T13:45:51;2.05;;;0.43;;
81396;SDS011;70852;49.908;8.126;2024-03-23T13:48:20;1.63;;;0.60;;
81396;SDS011;70852;49.908;8.126;2024-03-23T13:50:46;1.52;;;0.95;;
81396;SDS011;70852;49.908;8.126;2024-03-23T13:53:14;1.02;;;0.90;;
81396;SDS011;70852;49.908;8.126;2024-03-23T13:55:47;1.08;;;0.15;;
81396;SDS011;70852;49.908;8.126;2024-03-23T13:58:15;1.98;;;0.45;;
81396;SDS011;70852;49.908;8.126;2024-03-23T14:00:41;1.85;;;0.52;;
81396;SDS011;70852;49.908;8.126;2024-03-23T14:03:12;0.43;;;0.25;;
81396;SDS011;70852;49.908;8.126;2024-03-23T14:05:39;0.82;;;0.45;;
81396;SDS011;70852;49.908;8.126;2024-03-23T14:08:10;1.05;;;0.40;;
81396;SDS011;70852;49.908;8.126;2024-03-23T14:10:36;1.05;;;0.20;;
81396;SDS011;70852;49.908;8.126;2024-03-23T14:13:07;1.48;;;0.50;;
81396;SDS011;70852;49.908;8.126;2024-03-23T14:15:32;0.63;;;0.28;;
81396;SDS011;70852;49.908;8.126;2024-03-23T14:17:58;1.35;;;0.47;;
81396;SDS011;70852;49.908;8.126;2024-03-23T14:20:26;1.00;;;0.38;;
81396;SDS011;70852;49.908;8.126;2024-03-23T14:22:54;0.98;;;0.35;;
81396;SDS011;70852;49.908;8.126;2024-03-23T14:25:21;2.53;;;0.30;;
81396;SDS011;70852;49.908;8.126;2024-03-23T14:27:52;1.27;;;0.50;;
81396;SDS011;70852;49.908;8.126;2024-03-23T14:30:20;0.93;;;0.40;;
81396;SDS011;70852;49.908;8.126;2024-03-23T14:32:45;0.47;;;0.38;;
81396;SDS011;70852;49.908;8.126;2024-03-23T14:35:10;1.45;;;0.77;;
81396;SDS011;70852;49.908;8.126;2024-03-23T14:37:37;1.73;;;0.40;;
81396;SDS011;70852;49.908;8.126;2024-03-23T14:40:09;1.63;;;0.82;;
81396;SDS011;70852;49.908;8.126;2024-03-23T14:42:40;1.52;;;0.60;;
81396;SDS011;70852;49.908;8.126;2024-03-23T14:45:06;1.35;;;0.60;;
81396;SDS011;70852;49.908;8.126;2024-03-23T14:47:32;2.42;;;0.70;;
81396;SDS011;70852;49.908;8.126;2024-03-23T14:50:02;2.78;;;0.70;;
81396;SDS011;70852;49.908;8.126;2024-03-23T14:52:27;2.38;;;0.57;;
81396;SDS011;70852;49.908;8.126;2024-03-23T14:54:56;3.50;;;0.65;;
81396;SDS011;70852;49.908;8.126;2024-03-23T14:57:21;1.80;;;0.40;;
81396;SDS011;70852;49.908;8.126;2024-03-23T14:59:52;1.35;;;0.40;;
81396;SDS011;70852;49.908;8.126;2024-03-23T15:02:17;0.65;;;0.50;;
81396;SDS011;70852;49.908;8.126;2024-03-23T15:04:45;2.15;;;0.45;;
81396;SDS011;70852;49.908;8.126;2024-03-23T15:07:10;1.90;;;0.43;;
81396;SDS011;70852;49.908;8.126;2024-03-23T15:09:35;0.75;;;0.20;;
81396;SDS011;70852;49.908;8.126;2024-03-23T15:12:00;1.30;;;0.40;;
81396;SDS011;70852;49.908;8.126;2024-03-23T15:14:28;1.40;;;0.28;;
81396;SDS011;70852;49.908;8.126;2024-03-23T15:16:54;3.33;;;0.43;;
81396;SDS011;70852;49.908;8.126;2024-03-23T15:19:19;1.17;;;0.20;;
81396;SDS011;70852;49.908;8.126;2024-03-23T15:21:47;1.33;;;0.50;;
81396;SDS011;70852;49.908;8.126;2024-03-23T15:24:12;0.85;;;0.22;;
81396;SDS011;70852;49.908;8.126;2024-03-23T15:26:38;1.20;;;0.32;;
81396;SDS011;70852;49.908;8.126;2024-03-23T15:29:06;1.00;;;0.40;;
81396;SDS011;70852;49.908;8.126;2024-03-23T15:31:41;2.08;;;0.43;;
81396;SDS011;70852;49.908;8.126;2024-03-23T15:34:10;1.65;;;0.40;;
81396;SDS011;70852;49.908;8.126;2024-03-23T15:36:38;0.47;;;0.20;;
81396;SDS011;70852;49.908;8.126;2024-03-23T15:39:04;0.40;;;0.15;;
81396;SDS011;70852;49.908;8.126;2024-03-23T15:41:30;0.82;;;0.40;;
81396;SDS011;70852;49.908;8.126;2024-03-23T15:43:56;1.45;;;0.22;;
81396;SDS011;70852;49.908;8.126;2024-03-23T15:46:21;0.45;;;0.20;;
81396;SDS011;70852;49.908;8.126;2024-03-23T15:48:46;2.05;;;0.30;;
81396;SDS011;70852;49.908;8.126;2024-03-23T15:51:16;1.15;;;0.20;;
81396;SDS011;70852;49.908;8.126;2024-03-23T15:53:45;0.45;;;0.20;;
81396;SDS011;70852;49.908;8.126;2024-03-23T15:56:10;0.80;;;0.20;;
81396;SDS011;70852;49.908;8.126;2024-03-23T15:58:36;3.47;;;0.32;;
81396;SDS011;70852;49.908;8.126;2024-03-23T16:01:02;1.00;;;0.30;;
81396;SDS011;70852;49.908;8.126;2024-03-23T16:03:29;1.95;;;0.38;;
81396;SDS011;70852;49.908;8.126;2024-03-23T16:05:56;1.23;;;0.32;;
81396;SDS011;70852;49.908;8.126;2024-03-23T16:08:23;2.30;;;0.30;;